Aérodrome :
LOGIN :

S'inscrire | Disclaimer

   EN    FR    IT 

 










Légende :    VFR   VFR Marginal   IFR   IFR Intensif   IFR Très Intensif
Visi : 
Plafond : 
>= 8 km
>= 3000ft
5 à 8 km
1000 à 3000 ft
1500m à 5 km
500 à 1000 ft
800 à 1500m
200 à 500 ft
< 800m
< 200 ft
Symboles :   Orages  Brouillard  Fortes neiges  Fortes précipitations  Vent > 20 kt
SIGMETs :   Divers  Orages  Givrage  Turbulence  Onde Orograph.  Cendres Volcan.






- Altitude de l'aérodrome : 659 ft
- Code IATA : LGG


EBLG - Liège

DERNIER METAR :
  • 101150Z 10006KT 7000 -RA SCT007 BKN027 08/07 Q1011 TEMPO 4500 RADZ BKN007

METARs EXPIRÉS :
  • 101120Z 10006KT 7000 -RA SCT009 BKN027 08/07 Q1011 TEMPO 4500 RADZ BKN007
  • 101050Z 13004KT 100V160 6000 -RADZ SCT007 BKN022 08/07 Q1012 TEMPO 4500 RADZ BKN007
  • 101020Z 12005KT 080V200 7000 -RADZ SCT007 BKN018 08/07 Q1012 TEMPO 4500 RADZ BKN007
  • 100950Z 14003KT 6000 -RADZ SCT007 BKN020 08/06 Q1012 TEMPO 3500 RADZ BKN007
  • 100920Z 16003KT 110V210 7000 -RADZ FEW005 SCT008 BKN018 08/07 Q1012 TEMPO 3500 RADZ BKN007

TAF TAF EBLG
Valide du 10 à 12h jusqu'au 11 à 18h UTC


100604Z 1012/1118 15006KT 5000 -RADZ SCT006 BKN011
TEMPO 1012/1115 2500 RA RADZ SCT003 BKN006
PROB40
TEMPO 1019/1110 1500 DZRA BR BKN002
PROB30
TEMPO 1106/1110 1200 -RASN
BECMG 1110/1112 36010KT
BECMG 1116/1118 9999 NSW BKN020



MET'MAP, la Météo Aéronautique d'un coup d'oeil ! - Copyright ORBIFLY Décembre 2007 - Disclaimer

ORBIFLY MET'MAP TEAM :

Programmation & Développement : Alexandra Zaïnal
Sur une idée originale de : Baudouin d'Aumeries
Assistance à la programmation : Marc-Olivier Méhu
Soutien technique & logistique : Manuel Goepfert

Contact : metmap@orbifly.com




SOURCES & CREDITS :

   NOAA